sensor_id;sensor_type;location;lat;lon;timestamp;P1;durP1;ratioP1;P2;durP2;ratioP2
64633;SDS011;51043;52.406;9.690;2023-04-26T00:00:10;7.77;;;2.93;;
64633;SDS011;51043;52.406;9.690;2023-04-26T00:02:39;13.43;;;3.20;;
64633;SDS011;51043;52.406;9.690;2023-04-26T00:05:07;17.17;;;3.43;;
64633;SDS011;51043;52.406;9.690;2023-04-26T00:07:35;17.43;;;4.50;;
64633;SDS011;51043;52.406;9.690;2023-04-26T00:10:08;9.47;;;3.33;;
64633;SDS011;51043;52.406;9.690;2023-04-26T00:12:36;13.77;;;3.53;;
64633;SDS011;51043;52.406;9.690;2023-04-26T00:15:07;16.43;;;3.50;;
64633;SDS011;51043;52.406;9.690;2023-04-26T00:17:37;9.97;;;3.60;;
64633;SDS011;51043;52.406;9.690;2023-04-26T00:20:08;10.73;;;3.03;;
64633;SDS011;51043;52.406;9.690;2023-04-26T00:22:38;10.30;;;3.27;;
64633;SDS011;51043;52.406;9.690;2023-04-26T00:25:07;8.70;;;3.13;;
64633;SDS011;51043;52.406;9.690;2023-04-26T00:27:36;9.87;;;2.83;;
64633;SDS011;51043;52.406;9.690;2023-04-26T00:30:08;12.67;;;3.33;;
64633;SDS011;51043;52.406;9.690;2023-04-26T00:32:38;13.90;;;2.93;;
64633;SDS011;51043;52.406;9.690;2023-04-26T00:35:07;12.20;;;3.50;;
64633;SDS011;51043;52.406;9.690;2023-04-26T00:37:35;12.50;;;4.33;;
64633;SDS011;51043;52.406;9.690;2023-04-26T00:40:04;10.50;;;2.90;;
64633;SDS011;51043;52.406;9.690;2023-04-26T00:42:36;7.97;;;2.67;;
64633;SDS011;51043;52.406;9.690;2023-04-26T00:45:05;13.23;;;3.27;;
64633;SDS011;51043;52.406;9.690;2023-04-26T00:47:35;7.83;;;2.57;;
64633;SDS011;51043;52.406;9.690;2023-04-26T00:50:04;14.03;;;3.20;;
64633;SDS011;51043;52.406;9.690;2023-04-26T00:52:35;12.50;;;3.47;;
64633;SDS011;51043;52.406;9.690;2023-04-26T00:55:04;12.30;;;3.87;;
64633;SDS011;51043;52.406;9.690;2023-04-26T00:57:35;10.77;;;3.63;;
64633;SDS011;51043;52.406;9.690;2023-04-26T01:00:04;9.83;;;3.47;;
64633;SDS011;51043;52.406;9.690;2023-04-26T01:02:35;13.10;;;3.60;;
64633;SDS011;51043;52.406;9.690;2023-04-26T01:05:07;13.80;;;3.93;;
64633;SDS011;51043;52.406;9.690;2023-04-26T01:07:36;12.77;;;3.50;;
64633;SDS011;51043;52.406;9.690;2023-04-26T01:10:05;13.30;;;3.40;;
64633;SDS011;51043;52.406;9.690;2023-04-26T01:12:36;10.93;;;3.33;;
64633;SDS011;51043;52.406;9.690;2023-04-26T01:15:05;12.97;;;3.40;;
64633;SDS011;51043;52.406;9.690;2023-04-26T01:17:35;9.83;;;3.10;;
64633;SDS011;51043;52.406;9.690;2023-04-26T01:20:04;10.10;;;2.70;;
64633;SDS011;51043;52.406;9.690;2023-04-26T01:22:45;8.60;;;3.33;;
64633;SDS011;51043;52.406;9.690;2023-04-26T01:25:14;11.83;;;3.20;;
64633;SDS011;51043;52.406;9.690;2023-04-26T01:27:43;11.57;;;3.33;;
64633;SDS011;51043;52.406;9.690;2023-04-26T01:30:12;10.17;;;3.17;;
64633;SDS011;51043;52.406;9.690;2023-04-26T01:32:40;13.37;;;3.47;;
64633;SDS011;51043;52.406;9.690;2023-04-26T01:35:08;11.27;;;3.10;;
64633;SDS011;51043;52.406;9.690;2023-04-26T01:37:36;8.10;;;2.73;;
64633;SDS011;51043;52.406;9.690;2023-04-26T01:40:06;10.97;;;3.10;;
64633;SDS011;51043;52.406;9.690;2023-04-26T01:42:36;9.53;;;3.00;;
64633;SDS011;51043;52.406;9.690;2023-04-26T01:45:05;11.87;;;3.07;;
64633;SDS011;51043;52.406;9.690;2023-04-26T01:47:54;8.67;;;2.40;;
64633;SDS011;51043;52.406;9.690;2023-04-26T01:50:27;4.47;;;1.93;;
64633;SDS011;51043;52.406;9.690;2023-04-26T01:52:55;8.13;;;2.20;;
64633;SDS011;51043;52.406;9.690;2023-04-26T01:55:24;6.77;;;2.23;;
64633;SDS011;51043;52.406;9.690;2023-04-26T01:57:52;9.77;;;3.10;;
64633;SDS011;51043;52.406;9.690;2023-04-26T02:00:21;8.57;;;2.90;;
64633;SDS011;51043;52.406;9.690;2023-04-26T02:02:49;8.93;;;3.33;;
64633;SDS011;51043;52.406;9.690;2023-04-26T02:05:21;10.63;;;3.43;;
64633;SDS011;51043;52.406;9.690;2023-04-26T02:07:50;11.43;;;3.00;;
64633;SDS011;51043;52.406;9.690;2023-04-26T02:10:19;10.87;;;3.30;;
64633;SDS011;51043;52.406;9.690;2023-04-26T02:12:48;9.93;;;3.37;;
64633;SDS011;51043;52.406;9.690;2023-04-26T02:15:16;10.83;;;3.10;;
64633;SDS011;51043;52.406;9.690;2023-04-26T02:17:44;10.23;;;2.90;;
64633;SDS011;51043;52.406;9.690;2023-04-26T02:20:12;9.80;;;3.40;;
64633;SDS011;51043;52.406;9.690;2023-04-26T02:22:41;9.47;;;3.57;;
64633;SDS011;51043;52.406;9.690;2023-04-26T02:25:09;13.03;;;3.73;;
64633;SDS011;51043;52.406;9.690;2023-04-26T02:27:37;9.67;;;3.50;;
64633;SDS011;51043;52.406;9.690;2023-04-26T02:30:10;24.73;;;4.27;;
64633;SDS011;51043;52.406;9.690;2023-04-26T02:32:38;9.43;;;3.50;;
64633;SDS011;51043;52.406;9.690;2023-04-26T02:35:07;12.97;;;3.30;;
64633;SDS011;51043;52.406;9.690;2023-04-26T02:37:38;8.57;;;3.13;;
64633;SDS011;51043;52.406;9.690;2023-04-26T02:40:06;12.07;;;3.20;;
64633;SDS011;51043;52.406;9.690;2023-04-26T02:42:37;7.93;;;3.30;;
64633;SDS011;51043;52.406;9.690;2023-04-26T02:45:06;12.80;;;4.30;;
64633;SDS011;51043;52.406;9.690;2023-04-26T02:47:38;12.03;;;3.00;;
64633;SDS011;51043;52.406;9.690;2023-04-26T02:50:07;12.93;;;3.30;;
64633;SDS011;51043;52.406;9.690;2023-04-26T02:52:37;13.47;;;4.03;;
64633;SDS011;51043;52.406;9.690;2023-04-26T02:55:05;11.80;;;3.60;;
64633;SDS011;51043;52.406;9.690;2023-04-26T02:57:37;9.40;;;3.37;;
64633;SDS011;51043;52.406;9.690;2023-04-26T03:00:08;11.13;;;3.70;;
64633;SDS011;51043;52.406;9.690;2023-04-26T03:02:39;8.73;;;3.57;;
64633;SDS011;51043;52.406;9.690;2023-04-26T03:05:07;12.53;;;3.30;;
64633;SDS011;51043;52.406;9.690;2023-04-26T03:07:36;5.50;;;2.50;;
64633;SDS011;51043;52.406;9.690;2023-04-26T03:10:05;15.53;;;3.93;;
64633;SDS011;51043;52.406;9.690;2023-04-26T03:12:34;12.07;;;3.67;;
64633;SDS011;51043;52.406;9.690;2023-04-26T03:15:03;10.53;;;3.30;;
64633;SDS011;51043;52.406;9.690;2023-04-26T03:17:33;14.37;;;3.60;;
64633;SDS011;51043;52.406;9.690;2023-04-26T03:20:01;8.47;;;3.53;;
64633;SDS011;51043;52.406;9.690;2023-04-26T03:22:32;13.00;;;4.00;;
64633;SDS011;51043;52.406;9.690;2023-04-26T03:25:00;12.17;;;3.70;;
64633;SDS011;51043;52.406;9.690;2023-04-26T03:27:29;12.37;;;3.80;;
64633;SDS011;51043;52.406;9.690;2023-04-26T03:29:59;13.27;;;3.83;;
64633;SDS011;51043;52.406;9.690;2023-04-26T03:32:27;8.40;;;3.23;;
64633;SDS011;51043;52.406;9.690;2023-04-26T03:34:59;12.87;;;3.80;;
64633;SDS011;51043;52.406;9.690;2023-04-26T03:37:28;11.60;;;3.93;;
64633;SDS011;51043;52.406;9.690;2023-04-26T03:40:02;15.53;;;4.27;;
64633;SDS011;51043;52.406;9.690;2023-04-26T03:42:34;12.70;;;3.97;;
64633;SDS011;51043;52.406;9.690;2023-04-26T03:45:02;12.30;;;3.47;;
64633;SDS011;51043;52.406;9.690;2023-04-26T03:47:31;16.70;;;4.50;;
64633;SDS011;51043;52.406;9.690;2023-04-26T03:50:01;14.03;;;3.90;;
64633;SDS011;51043;52.406;9.690;2023-04-26T03:52:29;11.07;;;3.73;;
64633;SDS011;51043;52.406;9.690;2023-04-26T03:55:00;11.13;;;3.83;;
64633;SDS011;51043;52.406;9.690;2023-04-26T03:57:29;12.70;;;4.10;;
64633;SDS011;51043;52.406;9.690;2023-04-26T03:59:59;12.53;;;4.20;;
64633;SDS011;51043;52.406;9.690;2023-04-26T04:02:29;10.70;;;4.07;;
64633;SDS011;51043;52.406;9.690;2023-04-26T04:05:01;12.07;;;3.70;;
64633;SDS011;51043;52.406;9.690;2023-04-26T04:07:30;11.90;;;3.60;;
64633;SDS011;51043;52.406;9.690;2023-04-26T04:10:00;8.03;;;3.37;;
64633;SDS011;51043;52.406;9.690;2023-04-26T04:12:28;24.20;;;4.47;;
64633;SDS011;51043;52.406;9.690;2023-04-26T04:14:57;10.13;;;3.73;;
64633;SDS011;51043;52.406;9.690;2023-04-26T04:17:26;9.67;;;3.80;;
64633;SDS011;51043;52.406;9.690;2023-04-26T04:19:54;17.37;;;4.47;;
64633;SDS011;51043;52.406;9.690;2023-04-26T04:22:23;15.93;;;4.73;;
64633;SDS011;51043;52.406;9.690;2023-04-26T04:24:51;17.60;;;3.90;;
64633;SDS011;51043;52.406;9.690;2023-04-26T04:27:20;11.53;;;3.67;;
64633;SDS011;51043;52.406;9.690;2023-04-26T04:29:48;13.40;;;3.90;;
64633;SDS011;51043;52.406;9.690;2023-04-26T04:32:16;13.93;;;4.30;;
64633;SDS011;51043;52.406;9.690;2023-04-26T04:34:44;13.03;;;4.27;;
64633;SDS011;51043;52.406;9.690;2023-04-26T04:37:14;10.17;;;3.40;;
64633;SDS011;51043;52.406;9.690;2023-04-26T04:39:44;17.23;;;4.83;;
64633;SDS011;51043;52.406;9.690;2023-04-26T04:42:13;14.70;;;4.37;;
64633;SDS011;51043;52.406;9.690;2023-04-26T04:44:44;13.30;;;3.57;;
64633;SDS011;51043;52.406;9.690;2023-04-26T04:47:12;12.77;;;3.60;;
64633;SDS011;51043;52.406;9.690;2023-04-26T04:49:43;13.33;;;4.73;;
64633;SDS011;51043;52.406;9.690;2023-04-26T04:52:14;11.27;;;3.50;;
64633;SDS011;51043;52.406;9.690;2023-04-26T04:54:44;9.60;;;3.87;;
64633;SDS011;51043;52.406;9.690;2023-04-26T04:57:13;13.20;;;4.47;;
64633;SDS011;51043;52.406;9.690;2023-04-26T04:59:45;13.83;;;4.10;;
64633;SDS011;51043;52.406;9.690;2023-04-26T05:02:14;6.90;;;3.03;;
64633;SDS011;51043;52.406;9.690;2023-04-26T05:04:42;11.77;;;3.87;;
64633;SDS011;51043;52.406;9.690;2023-04-26T05:07:10;15.53;;;4.43;;
64633;SDS011;51043;52.406;9.690;2023-04-26T05:09:41;12.10;;;4.50;;
64633;SDS011;51043;52.406;9.690;2023-04-26T05:12:11;6.60;;;2.37;;
64633;SDS011;51043;52.406;9.690;2023-04-26T05:14:40;15.53;;;4.27;;
64633;SDS011;51043;52.406;9.690;2023-04-26T05:17:08;9.53;;;3.90;;
64633;SDS011;51043;52.406;9.690;2023-04-26T05:19:40;10.90;;;4.07;;
64633;SDS011;51043;52.406;9.690;2023-04-26T05:22:08;12.77;;;3.70;;
64633;SDS011;51043;52.406;9.690;2023-04-26T05:24:36;6.20;;;3.07;;
64633;SDS011;51043;52.406;9.690;2023-04-26T05:27:05;10.13;;;4.00;;
64633;SDS011;51043;52.406;9.690;2023-04-26T05:30:07;12.30;;;4.63;;
64633;SDS011;51043;52.406;9.690;2023-04-26T05:32:59;12.17;;;3.83;;
64633;SDS011;51043;52.406;9.690;2023-04-26T05:35:39;9.40;;;3.63;;
64633;SDS011;51043;52.406;9.690;2023-04-26T05:38:07;9.97;;;3.77;;
64633;SDS011;51043;52.406;9.690;2023-04-26T05:40:35;10.20;;;3.63;;
64633;SDS011;51043;52.406;9.690;2023-04-26T05:43:04;10.40;;;3.77;;
64633;SDS011;51043;52.406;9.690;2023-04-26T05:45:35;16.83;;;4.00;;
64633;SDS011;51043;52.406;9.690;2023-04-26T05:48:04;9.27;;;3.33;;
64633;SDS011;51043;52.406;9.690;2023-04-26T05:50:32;12.00;;;3.80;;
64633;SDS011;51043;52.406;9.690;2023-04-26T05:53:00;9.80;;;4.03;;
64633;SDS011;51043;52.406;9.690;2023-04-26T05:55:28;6.17;;;3.17;;
64633;SDS011;51043;52.406;9.690;2023-04-26T05:57:56;13.00;;;3.83;;
64633;SDS011;51043;52.406;9.690;2023-04-26T06:00:24;9.30;;;3.70;;
64633;SDS011;51043;52.406;9.690;2023-04-26T06:02:54;7.77;;;2.77;;
64633;SDS011;51043;52.406;9.690;2023-04-26T06:05:22;11.37;;;4.07;;
64633;SDS011;51043;52.406;9.690;2023-04-26T06:07:50;13.07;;;3.70;;
64633;SDS011;51043;52.406;9.690;2023-04-26T06:10:23;7.80;;;3.07;;
64633;SDS011;51043;52.406;9.690;2023-04-26T06:12:51;18.90;;;4.17;;
64633;SDS011;51043;52.406;9.690;2023-04-26T06:15:20;8.43;;;2.97;;
64633;SDS011;51043;52.406;9.690;2023-04-26T06:17:48;8.27;;;3.07;;
64633;SDS011;51043;52.406;9.690;2023-04-26T06:20:18;14.53;;;3.77;;
64633;SDS011;51043;52.406;9.690;2023-04-26T06:22:47;5.43;;;2.50;;
64633;SDS011;51043;52.406;9.690;2023-04-26T06:25:16;11.93;;;3.50;;
64633;SDS011;51043;52.406;9.690;2023-04-26T06:27:45;8.00;;;2.80;;
64633;SDS011;51043;52.406;9.690;2023-04-26T06:30:16;7.17;;;3.30;;
64633;SDS011;51043;52.406;9.690;2023-04-26T06:32:46;5.47;;;2.70;;
64633;SDS011;51043;52.406;9.690;2023-04-26T06:35:21;15.83;;;3.87;;
64633;SDS011;51043;52.406;9.690;2023-04-26T06:37:51;6.07;;;2.63;;
64633;SDS011;51043;52.406;9.690;2023-04-26T06:40:22;10.27;;;3.60;;
64633;SDS011;51043;52.406;9.690;2023-04-26T06:42:51;10.13;;;3.60;;
64633;SDS011;51043;52.406;9.690;2023-04-26T06:45:35;13.30;;;3.70;;
64633;SDS011;51043;52.406;9.690;2023-04-26T06:48:03;9.77;;;3.03;;
64633;SDS011;51043;52.406;9.690;2023-04-26T06:50:36;9.67;;;3.33;;
64633;SDS011;51043;52.406;9.690;2023-04-26T06:53:04;12.33;;;3.37;;
64633;SDS011;51043;52.406;9.690;2023-04-26T06:55:32;11.73;;;3.37;;
64633;SDS011;51043;52.406;9.690;2023-04-26T06:58:00;5.53;;;2.43;;
64633;SDS011;51043;52.406;9.690;2023-04-26T07:00:28;9.30;;;3.33;;
64633;SDS011;51043;52.406;9.690;2023-04-26T07:02:57;5.77;;;2.17;;
64633;SDS011;51043;52.406;9.690;2023-04-26T07:05:25;9.03;;;3.20;;
64633;SDS011;51043;52.406;9.690;2023-04-26T07:07:54;8.80;;;3.00;;
64633;SDS011;51043;52.406;9.690;2023-04-26T07:10:23;7.83;;;2.70;;
64633;SDS011;51043;52.406;9.690;2023-04-26T07:12:51;12.53;;;3.30;;
64633;SDS011;51043;52.406;9.690;2023-04-26T07:15:19;7.37;;;3.10;;
64633;SDS011;51043;52.406;9.690;2023-04-26T07:17:47;5.37;;;1.97;;
64633;SDS011;51043;52.406;9.690;2023-04-26T07:20:16;8.40;;;2.93;;
64633;SDS011;51043;52.406;9.690;2023-04-26T07:22:46;8.30;;;2.57;;
64633;SDS011;51043;52.406;9.690;2023-04-26T07:25:19;6.87;;;2.50;;
64633;SDS011;51043;52.406;9.690;2023-04-26T07:27:47;8.47;;;2.30;;
64633;SDS011;51043;52.406;9.690;2023-04-26T07:30:16;5.43;;;2.07;;
64633;SDS011;51043;52.406;9.690;2023-04-26T07:32:48;7.83;;;3.13;;
64633;SDS011;51043;52.406;9.690;2023-04-26T07:35:16;5.80;;;2.50;;
64633;SDS011;51043;52.406;9.690;2023-04-26T07:37:46;8.37;;;2.77;;
64633;SDS011;51043;52.406;9.690;2023-04-26T07:40:22;8.07;;;2.63;;
64633;SDS011;51043;52.406;9.690;2023-04-26T07:42:52;9.37;;;2.60;;
64633;SDS011;51043;52.406;9.690;2023-04-26T07:45:20;11.83;;;2.80;;
64633;SDS011;51043;52.406;9.690;2023-04-26T07:47:48;8.17;;;2.60;;
64633;SDS011;51043;52.406;9.690;2023-04-26T07:50:16;9.67;;;3.77;;
64633;SDS011;51043;52.406;9.690;2023-04-26T07:52:44;9.27;;;3.07;;
64633;SDS011;51043;52.406;9.690;2023-04-26T07:55:13;13.03;;;2.60;;
64633;SDS011;51043;52.406;9.690;2023-04-26T07:57:45;8.70;;;2.27;;
64633;SDS011;51043;52.406;9.690;2023-04-26T08:00:14;5.97;;;2.10;;
64633;SDS011;51043;52.406;9.690;2023-04-26T08:02:47;6.63;;;2.33;;
64633;SDS011;51043;52.406;9.690;2023-04-26T08:05:16;9.13;;;3.00;;
64633;SDS011;51043;52.406;9.690;2023-04-26T08:07:47;8.47;;;2.53;;
64633;SDS011;51043;52.406;9.690;2023-04-26T08:10:15;3.47;;;1.60;;
64633;SDS011;51043;52.406;9.690;2023-04-26T08:12:43;11.63;;;2.97;;
64633;SDS011;51043;52.406;9.690;2023-04-26T08:15:13;7.37;;;1.73;;
64633;SDS011;51043;52.406;9.690;2023-04-26T08:17:43;6.73;;;2.20;;
64633;SDS011;51043;52.406;9.690;2023-04-26T08:20:14;6.73;;;2.30;;
64633;SDS011;51043;52.406;9.690;2023-04-26T08:22:46;9.47;;;2.67;;
64633;SDS011;51043;52.406;9.690;2023-04-26T08:25:17;3.13;;;1.67;;
64633;SDS011;51043;52.406;9.690;2023-04-26T08:27:46;8.33;;;2.00;;
64633;SDS011;51043;52.406;9.690;2023-04-26T08:30:15;6.87;;;2.43;;
64633;SDS011;51043;52.406;9.690;2023-04-26T08:32:43;8.23;;;2.00;;
64633;SDS011;51043;52.406;9.690;2023-04-26T08:35:12;8.50;;;1.90;;
64633;SDS011;51043;52.406;9.690;2023-04-26T08:37:42;4.13;;;1.47;;
64633;SDS011;51043;52.406;9.690;2023-04-26T08:40:10;5.20;;;2.03;;
64633;SDS011;51043;52.406;9.690;2023-04-26T08:42:39;6.67;;;2.90;;
64633;SDS011;51043;52.406;9.690;2023-04-26T08:45:11;9.30;;;2.20;;
64633;SDS011;51043;52.406;9.690;2023-04-26T08:47:42;8.03;;;1.90;;
64633;SDS011;51043;52.406;9.690;2023-04-26T08:50:12;8.73;;;2.20;;
64633;SDS011;51043;52.406;9.690;2023-04-26T08:52:43;6.23;;;2.00;;
64633;SDS011;51043;52.406;9.690;2023-04-26T08:55:17;6.43;;;1.60;;
64633;SDS011;51043;52.406;9.690;2023-04-26T08:57:47;3.53;;;1.63;;
64633;SDS011;51043;52.406;9.690;2023-04-26T09:00:17;5.10;;;2.30;;
64633;SDS011;51043;52.406;9.690;2023-04-26T09:02:47;5.17;;;2.00;;
64633;SDS011;51043;52.406;9.690;2023-04-26T09:05:17;6.33;;;2.70;;
64633;SDS011;51043;52.406;9.690;2023-04-26T09:07:49;4.47;;;1.70;;
64633;SDS011;51043;52.406;9.690;2023-04-26T09:10:18;5.57;;;1.80;;
64633;SDS011;51043;52.406;9.690;2023-04-26T09:12:49;7.17;;;1.90;;
64633;SDS011;51043;52.406;9.690;2023-04-26T09:15:20;4.57;;;1.93;;
64633;SDS011;51043;52.406;9.690;2023-04-26T09:17:52;3.77;;;1.90;;
64633;SDS011;51043;52.406;9.690;2023-04-26T09:20:21;5.87;;;1.80;;
64633;SDS011;51043;52.406;9.690;2023-04-26T09:23:02;5.17;;;1.63;;
64633;SDS011;51043;52.406;9.690;2023-04-26T09:25:32;8.63;;;2.13;;
64633;SDS011;51043;52.406;9.690;2023-04-26T09:28:01;9.13;;;2.00;;
64633;SDS011;51043;52.406;9.690;2023-04-26T09:30:36;7.53;;;2.10;;
64633;SDS011;51043;52.406;9.690;2023-04-26T09:33:05;7.07;;;2.60;;
64633;SDS011;51043;52.406;9.690;2023-04-26T09:35:35;5.73;;;1.70;;
64633;SDS011;51043;52.406;9.690;2023-04-26T09:38:04;7.57;;;2.23;;
64633;SDS011;51043;52.406;9.690;2023-04-26T09:40:36;4.53;;;2.00;;
64633;SDS011;51043;52.406;9.690;2023-04-26T09:43:07;5.43;;;2.13;;
64633;SDS011;51043;52.406;9.690;2023-04-26T09:45:44;7.93;;;2.37;;
64633;SDS011;51043;52.406;9.690;2023-04-26T09:48:18;4.63;;;2.03;;
64633;SDS011;51043;52.406;9.690;2023-04-26T09:50:48;4.90;;;1.93;;
64633;SDS011;51043;52.406;9.690;2023-04-26T09:53:23;5.10;;;2.00;;
64633;SDS011;51043;52.406;9.690;2023-04-26T09:55:53;5.90;;;2.00;;
64633;SDS011;51043;52.406;9.690;2023-04-26T09:58:22;5.30;;;1.87;;
64633;SDS011;51043;52.406;9.690;2023-04-26T10:00:54;5.60;;;1.90;;
64633;SDS011;51043;52.406;9.690;2023-04-26T10:03:23;6.03;;;1.80;;
64633;SDS011;51043;52.406;9.690;2023-04-26T10:05:52;7.37;;;2.33;;
64633;SDS011;51043;52.406;9.690;2023-04-26T10:08:21;6.50;;;2.23;;
64633;SDS011;51043;52.406;9.690;2023-04-26T10:10:49;1.00;;;0.90;;
64633;SDS011;51043;52.406;9.690;2023-04-26T10:13:17;3.93;;;1.73;;
64633;SDS011;51043;52.406;9.690;2023-04-26T10:15:48;6.73;;;1.90;;
64633;SDS011;51043;52.406;9.690;2023-04-26T10:18:18;2.63;;;1.23;;
64633;SDS011;51043;52.406;9.690;2023-04-26T10:20:47;5.07;;;2.10;;
64633;SDS011;51043;52.406;9.690;2023-04-26T10:23:23;2.93;;;1.60;;
64633;SDS011;51043;52.406;9.690;2023-04-26T10:25:52;5.27;;;2.10;;
64633;SDS011;51043;52.406;9.690;2023-04-26T10:31:22;4.33;;;2.20;;
64633;SDS011;51043;52.406;9.690;2023-04-26T10:39:40;6.93;;;2.00;;
64633;SDS011;51043;52.406;9.690;2023-04-26T10:42:18;3.53;;;1.87;;
64633;SDS011;51043;52.406;9.690;2023-04-26T10:44:51;3.50;;;2.00;;
64633;SDS011;51043;52.406;9.690;2023-04-26T10:47:20;4.67;;;2.00;;
64633;SDS011;51043;52.406;9.690;2023-04-26T10:49:53;5.03;;;1.70;;
64633;SDS011;51043;52.406;9.690;2023-04-26T10:52:31;3.70;;;1.70;;
64633;SDS011;51043;52.406;9.690;2023-04-26T10:54:59;4.93;;;2.00;;
64633;SDS011;51043;52.406;9.690;2023-04-26T10:57:47;2.27;;;1.43;;
64633;SDS011;51043;52.406;9.690;2023-04-26T11:03:03;4.47;;;1.80;;
64633;SDS011;51043;52.406;9.690;2023-04-26T11:05:36;3.93;;;1.40;;
64633;SDS011;51043;52.406;9.690;2023-04-26T11:08:26;7.47;;;2.00;;
64633;SDS011;51043;52.406;9.690;2023-04-26T11:10:56;2.70;;;1.60;;
64633;SDS011;51043;52.406;9.690;2023-04-26T11:13:26;4.87;;;1.93;;
64633;SDS011;51043;52.406;9.690;2023-04-26T11:15:58;6.70;;;1.97;;
64633;SDS011;51043;52.406;9.690;2023-04-26T11:18:29;4.33;;;1.37;;
64633;SDS011;51043;52.406;9.690;2023-04-26T11:20:59;5.00;;;1.80;;
64633;SDS011;51043;52.406;9.690;2023-04-26T11:23:28;3.07;;;1.80;;
64633;SDS011;51043;52.406;9.690;2023-04-26T11:25:57;4.83;;;1.67;;
64633;SDS011;51043;52.406;9.690;2023-04-26T11:28:25;7.00;;;2.20;;
64633;SDS011;51043;52.406;9.690;2023-04-26T11:30:53;5.63;;;2.63;;
64633;SDS011;51043;52.406;9.690;2023-04-26T11:33:25;2.60;;;2.10;;
64633;SDS011;51043;52.406;9.690;2023-04-26T11:35:54;7.27;;;2.30;;
64633;SDS011;51043;52.406;9.690;2023-04-26T11:38:24;3.03;;;1.60;;
64633;SDS011;51043;52.406;9.690;2023-04-26T11:40:56;5.33;;;2.17;;
64633;SDS011;51043;52.406;9.690;2023-04-26T11:43:33;4.37;;;1.83;;
64633;SDS011;51043;52.406;9.690;2023-04-26T11:46:03;3.57;;;2.00;;
64633;SDS011;51043;52.406;9.690;2023-04-26T11:48:32;4.87;;;1.83;;
64633;SDS011;51043;52.406;9.690;2023-04-26T11:51:02;4.43;;;2.00;;
64633;SDS011;51043;52.406;9.690;2023-04-26T11:53:36;6.93;;;1.90;;
64633;SDS011;51043;52.406;9.690;2023-04-26T11:56:12;4.37;;;1.80;;
64633;SDS011;51043;52.406;9.690;2023-04-26T11:58:44;2.30;;;1.30;;
64633;SDS011;51043;52.406;9.690;2023-04-26T12:01:21;5.97;;;2.23;;
64633;SDS011;51043;52.406;9.690;2023-04-26T12:03:50;3.83;;;1.83;;
64633;SDS011;51043;52.406;9.690;2023-04-26T12:06:20;5.13;;;2.20;;
64633;SDS011;51043;52.406;9.690;2023-04-26T12:08:56;7.90;;;1.97;;
64633;SDS011;51043;52.406;9.690;2023-04-26T12:11:24;2.83;;;1.90;;
64633;SDS011;51043;52.406;9.690;2023-04-26T12:13:53;1.23;;;1.10;;
64633;SDS011;51043;52.406;9.690;2023-04-26T12:16:24;3.90;;;1.80;;
64633;SDS011;51043;52.406;9.690;2023-04-26T12:18:53;4.40;;;2.10;;
64633;SDS011;51043;52.406;9.690;2023-04-26T12:21:22;5.60;;;1.73;;
64633;SDS011;51043;52.406;9.690;2023-04-26T12:23:52;6.23;;;2.30;;
64633;SDS011;51043;52.406;9.690;2023-04-26T12:26:22;6.57;;;2.03;;
64633;SDS011;51043;52.406;9.690;2023-04-26T12:29:08;6.83;;;2.13;;
64633;SDS011;51043;52.406;9.690;2023-04-26T12:31:36;5.60;;;2.10;;
64633;SDS011;51043;52.406;9.690;2023-04-26T12:34:04;6.80;;;2.00;;
64633;SDS011;51043;52.406;9.690;2023-04-26T12:36:33;4.70;;;1.80;;
64633;SDS011;51043;52.406;9.690;2023-04-26T12:39:02;3.47;;;1.77;;
64633;SDS011;51043;52.406;9.690;2023-04-26T12:41:32;6.47;;;1.90;;
64633;SDS011;51043;52.406;9.690;2023-04-26T12:44:00;4.60;;;2.00;;
64633;SDS011;51043;52.406;9.690;2023-04-26T12:46:28;7.43;;;1.90;;
64633;SDS011;51043;52.406;9.690;2023-04-26T12:48:56;3.43;;;1.87;;
64633;SDS011;51043;52.406;9.690;2023-04-26T12:51:24;6.30;;;2.10;;
64633;SDS011;51043;52.406;9.690;2023-04-26T12:53:52;4.73;;;2.10;;
64633;SDS011;51043;52.406;9.690;2023-04-26T12:56:20;6.60;;;2.07;;
64633;SDS011;51043;52.406;9.690;2023-04-26T12:58:51;4.90;;;2.07;;
64633;SDS011;51043;52.406;9.690;2023-04-26T13:01:19;5.33;;;2.30;;
64633;SDS011;51043;52.406;9.690;2023-04-26T13:03:48;4.30;;;1.93;;
64633;SDS011;51043;52.406;9.690;2023-04-26T13:06:16;4.60;;;2.17;;
64633;SDS011;51043;52.406;9.690;2023-04-26T13:08:47;8.77;;;2.70;;
64633;SDS011;51043;52.406;9.690;2023-04-26T13:11:15;4.57;;;2.10;;
64633;SDS011;51043;52.406;9.690;2023-04-26T13:13:44;7.23;;;2.07;;
64633;SDS011;51043;52.406;9.690;2023-04-26T13:16:13;3.80;;;2.30;;
64633;SDS011;51043;52.406;9.690;2023-04-26T13:18:41;5.07;;;2.00;;
64633;SDS011;51043;52.406;9.690;2023-04-26T13:21:10;3.20;;;1.67;;
64633;SDS011;51043;52.406;9.690;2023-04-26T13:23:38;3.93;;;2.27;;
64633;SDS011;51043;52.406;9.690;2023-04-26T13:26:06;2.33;;;1.73;;
64633;SDS011;51043;52.406;9.690;2023-04-26T13:28:34;5.97;;;2.13;;
64633;SDS011;51043;52.406;9.690;2023-04-26T13:31:03;6.23;;;2.10;;
64633;SDS011;51043;52.406;9.690;2023-04-26T13:33:33;8.87;;;2.90;;
64633;SDS011;51043;52.406;9.690;2023-04-26T13:36:00;3.83;;;2.00;;
64633;SDS011;51043;52.406;9.690;2023-04-26T13:38:28;5.70;;;2.70;;
64633;SDS011;51043;52.406;9.690;2023-04-26T13:40:57;6.33;;;2.50;;
64633;SDS011;51043;52.406;9.690;2023-04-26T13:43:26;5.93;;;2.60;;
64633;SDS011;51043;52.406;9.690;2023-04-26T13:45:54;4.23;;;1.97;;
64633;SDS011;51043;52.406;9.690;2023-04-26T13:48:22;10.07;;;2.33;;
64633;SDS011;51043;52.406;9.690;2023-04-26T13:50:51;5.50;;;2.30;;
64633;SDS011;51043;52.406;9.690;2023-04-26T13:53:21;5.97;;;2.73;;
64633;SDS011;51043;52.406;9.690;2023-04-26T13:55:49;7.10;;;2.43;;
64633;SDS011;51043;52.406;9.690;2023-04-26T13:58:17;1.73;;;1.50;;
64633;SDS011;51043;52.406;9.690;2023-04-26T14:00:47;2.53;;;1.87;;
64633;SDS011;51043;52.406;9.690;2023-04-26T14:03:15;5.87;;;2.57;;
64633;SDS011;51043;52.406;9.690;2023-04-26T14:05:43;5.50;;;2.33;;
64633;SDS011;51043;52.406;9.690;2023-04-26T14:08:13;12.60;;;2.57;;
64633;SDS011;51043;52.406;9.690;2023-04-26T14:10:41;6.37;;;2.30;;
64633;SDS011;51043;52.406;9.690;2023-04-26T14:13:09;4.63;;;2.33;;
64633;SDS011;51043;52.406;9.690;2023-04-26T14:15:37;6.60;;;2.43;;
64633;SDS011;51043;52.406;9.690;2023-04-26T14:18:05;9.63;;;2.53;;
64633;SDS011;51043;52.406;9.690;2023-04-26T14:20:33;3.40;;;2.33;;
64633;SDS011;51043;52.406;9.690;2023-04-26T14:23:01;4.77;;;2.37;;
64633;SDS011;51043;52.406;9.690;2023-04-26T14:25:31;4.37;;;2.20;;
64633;SDS011;51043;52.406;9.690;2023-04-26T14:27:59;6.90;;;2.07;;
64633;SDS011;51043;52.406;9.690;2023-04-26T14:30:27;3.93;;;2.30;;
64633;SDS011;51043;52.406;9.690;2023-04-26T14:32:56;2.87;;;1.80;;
64633;SDS011;51043;52.406;9.690;2023-04-26T14:35:24;4.60;;;2.13;;
64633;SDS011;51043;52.406;9.690;2023-04-26T14:37:52;6.07;;;2.13;;
64633;SDS011;51043;52.406;9.690;2023-04-26T14:40:20;5.57;;;2.63;;
64633;SDS011;51043;52.406;9.690;2023-04-26T14:42:52;4.53;;;2.17;;
64633;SDS011;51043;52.406;9.690;2023-04-26T14:45:22;4.57;;;2.50;;
64633;SDS011;51043;52.406;9.690;2023-04-26T14:47:55;7.40;;;2.90;;
64633;SDS011;51043;52.406;9.690;2023-04-26T14:50:23;7.07;;;2.60;;
64633;SDS011;51043;52.406;9.690;2023-04-26T14:52:52;5.40;;;2.53;;
64633;SDS011;51043;52.406;9.690;2023-04-26T14:55:21;5.73;;;3.07;;
64633;SDS011;51043;52.406;9.690;2023-04-26T14:57:49;3.90;;;2.07;;
64633;SDS011;51043;52.406;9.690;2023-04-26T15:00:28;7.27;;;2.80;;
64633;SDS011;51043;52.406;9.690;2023-04-26T15:02:56;5.53;;;2.47;;
64633;SDS011;51043;52.406;9.690;2023-04-26T15:05:25;6.00;;;2.60;;
64633;SDS011;51043;52.406;9.690;2023-04-26T15:07:53;8.23;;;2.50;;
64633;SDS011;51043;52.406;9.690;2023-04-26T15:10:22;5.40;;;2.30;;